Pike, Arkansas
Current Conditions -  °F | °C
As of 1:23 PM on Thursday 18 Dec 2014 (Local Time) from KADF Reporting Station
Haze Haze  
Wind Chill: 39°   Ceiling: 600
Heat Index: 43°   Visibility: 6mi
Dew Point: 43°   Wind: 7mph
Humidity: 100%   Direction: 10°N
Pressure: 30.18"   Gusts: NA
Location:  34.0586°N, 93.5318°W
Report Text: KADF 181923Z AUTO 01006KT 6SM BR OVC006 06/06 A3018 RMK AO2
Loading
Personal Weather Stations






























Interactive Weather Map New forecast layout! Learn more

10-Day Weather Forecast

Advertisements
Track Severe Weather on mobile